Date,TemperatureHighF,TemperatureAvgF,TemperatureLowF,DewpointHighF,DewpointAvgF,DewpointLowF,HumidityHigh,HumidityAvg,HumidityLow,PressureMaxIn,PressureMinIn,WindSpeedMaxMPH,WindSpeedAvgMPH,GustSpeedMaxMPH,PrecipitationSumIn
2013-6-1,88,78,68,70,67,65,92,71,50,30.09,29.95,13,4,14,0.00
2013-6-2,86,76,70,74,69,66,91,81,64,30.01,29.84,13,4,15,0.00
2013-6-3,83,75,68,74,70,66,96,84,66,29.91,29.81,8,1,11,0.00
2013-6-4,89,78,68,73,69,65,96,77,51,29.98,29.88,9,1,13,0.00
2013-6-5,85,74,69,74,70,67,95,88,67,30.00,29.89,15,1,22,0.00
2013-6-6,76,72,69,72,70,68,97,93,83,29.91,29.71,12,2,12,0.74
2013-6-7,86,74,68,73,70,67,98,88,60,29.81,29.59,17,4,17,0.94
2013-6-8,85,75,68,71,68,67,97,81,59,30.04,29.80,8,2,13,0.00
2013-6-9,87,74,68,76,70,66,97,89,64,30.08,30.01,12,2,21,1.15
2013-6-10,81,73,71,74,71,68,97,92,70,30.04,29.91,15,5,24,0.29
2013-6-11,90,79,70,76,73,69,96,81,59,30.00,29.89,12,2,15,0.00
2013-6-12,95,83,71,78,73,69,96,75,46,29.98,29.89,7,1,10,0.00
2013-6-13,93,83,74,76,74,71,94,75,52,29.90,29.67,18,4,24,0.00
2013-6-14,86,76,68,72,64,59,96,69,43,29.97,29.73,7,1,11,0.00
2013-6-15,86,75,61,67,62,55,95,68,38,30.09,29.97,8,1,12,0.00
2013-6-16,87,77,67,72,68,64,91,74,49,30.13,29.98,10,3,13,0.00
2013-6-17,88,76,70,76,70,67,96,82,58,30.04,29.90,16,2,21,0.31
2013-6-18,86,74,68,76,71,66,97,91,69,29.93,29.80,16,4,30,0.72
2013-6-19,80,74,70,73,71,68,97,91,75,30.04,29.85,4,0,6,0.00
2013-6-20,77,68,64,69,66,63,98,93,77,30.14,30.03,5,0,8,0.00